sensor_id;sensor_type;location;lat;lon;timestamp;temperature;humidity
53314;DHT22;39202;51.468;7.146;2023-01-26T00:01:47;21.70;40.80
53314;DHT22;39202;51.468;7.146;2023-01-26T00:06:49;21.70;40.80
53314;DHT22;39202;51.468;7.146;2023-01-26T00:11:51;21.70;40.80
53314;DHT22;39202;51.468;7.146;2023-01-26T00:16:54;21.70;40.80
53314;DHT22;39202;51.468;7.146;2023-01-26T00:21:56;21.70;40.80
53314;DHT22;39202;51.468;7.146;2023-01-26T00:26:57;21.70;40.80
53314;DHT22;39202;51.468;7.146;2023-01-26T00:32:00;21.70;40.80
53314;DHT22;39202;51.468;7.146;2023-01-26T00:37:02;21.70;40.80
53314;DHT22;39202;51.468;7.146;2023-01-26T00:42:04;21.70;40.80
53314;DHT22;39202;51.468;7.146;2023-01-26T00:47:12;21.70;40.80
53314;DHT22;39202;51.468;7.146;2023-01-26T00:52:14;21.80;40.90
53314;DHT22;39202;51.468;7.146;2023-01-26T00:57:16;21.70;40.80
53314;DHT22;39202;51.468;7.146;2023-01-26T01:02:19;21.80;40.90
53314;DHT22;39202;51.468;7.146;2023-01-26T01:07:21;21.80;40.90
53314;DHT22;39202;51.468;7.146;2023-01-26T01:12:23;21.80;40.90
53314;DHT22;39202;51.468;7.146;2023-01-26T01:17:26;21.80;40.90
53314;DHT22;39202;51.468;7.146;2023-01-26T01:22:28;21.80;40.90
53314;DHT22;39202;51.468;7.146;2023-01-26T01:27:29;21.80;40.80
53314;DHT22;39202;51.468;7.146;2023-01-26T01:32:33;21.80;40.80
53314;DHT22;39202;51.468;7.146;2023-01-26T01:37:35;21.80;40.80
53314;DHT22;39202;51.468;7.146;2023-01-26T01:42:37;21.80;40.80
53314;DHT22;39202;51.468;7.146;2023-01-26T01:47:40;21.80;40.80
53314;DHT22;39202;51.468;7.146;2023-01-26T01:52:42;21.80;40.70
53314;DHT22;39202;51.468;7.146;2023-01-26T01:57:46;21.80;40.70
53314;DHT22;39202;51.468;7.146;2023-01-26T02:02:55;21.80;40.70
53314;DHT22;39202;51.468;7.146;2023-01-26T02:08:12;21.80;40.70
53314;DHT22;39202;51.468;7.146;2023-01-26T02:13:16;21.80;40.70
53314;DHT22;39202;51.468;7.146;2023-01-26T02:18:20;21.70;40.60
53314;DHT22;39202;51.468;7.146;2023-01-26T02:23:30;21.70;40.70
53314;DHT22;39202;51.468;7.146;2023-01-26T02:28:35;21.70;40.70
53314;DHT22;39202;51.468;7.146;2023-01-26T02:33:37;21.70;40.70
53314;DHT22;39202;51.468;7.146;2023-01-26T02:38:42;21.70;40.70
53314;DHT22;39202;51.468;7.146;2023-01-26T02:43:45;21.70;40.60
53314;DHT22;39202;51.468;7.146;2023-01-26T02:48:47;21.70;40.70
53314;DHT22;39202;51.468;7.146;2023-01-26T02:54:06;21.70;40.70
53314;DHT22;39202;51.468;7.146;2023-01-26T02:59:09;21.70;40.70
53314;DHT22;39202;51.468;7.146;2023-01-26T03:04:11;21.70;40.70
53314;DHT22;39202;51.468;7.146;2023-01-26T03:09:13;21.70;40.80
53314;DHT22;39202;51.468;7.146;2023-01-26T03:14:16;21.70;40.80
53314;DHT22;39202;51.468;7.146;2023-01-26T03:19:18;21.70;40.80
53314;DHT22;39202;51.468;7.146;2023-01-26T03:24:37;21.70;40.80
53314;DHT22;39202;51.468;7.146;2023-01-26T03:29:57;21.70;40.80
53314;DHT22;39202;51.468;7.146;2023-01-26T03:34:59;21.70;40.80
53314;DHT22;39202;51.468;7.146;2023-01-26T03:40:01;21.70;40.80
53314;DHT22;39202;51.468;7.146;2023-01-26T03:45:22;21.80;40.90
53314;DHT22;39202;51.468;7.146;2023-01-26T03:50:41;21.80;40.90
53314;DHT22;39202;51.468;7.146;2023-01-26T03:56:00;21.80;40.80
53314;DHT22;39202;51.468;7.146;2023-01-26T04:01:19;21.80;40.70
53314;DHT22;39202;51.468;7.146;2023-01-26T04:06:26;21.80;40.70
53314;DHT22;39202;51.468;7.146;2023-01-26T04:11:46;21.80;40.70
53314;DHT22;39202;51.468;7.146;2023-01-26T04:16:49;21.80;40.60
53314;DHT22;39202;51.468;7.146;2023-01-26T04:22:08;21.80;40.60
53314;DHT22;39202;51.468;7.146;2023-01-26T04:27:13;21.80;40.60
53314;DHT22;39202;51.468;7.146;2023-01-26T04:32:16;21.80;40.50
53314;DHT22;39202;51.468;7.146;2023-01-26T04:37:18;21.80;40.50
53314;DHT22;39202;51.468;7.146;2023-01-26T04:42:20;21.70;40.40
53314;DHT22;39202;51.468;7.146;2023-01-26T04:47:25;21.70;40.40
53314;DHT22;39202;51.468;7.146;2023-01-26T04:52:27;21.70;40.40
53314;DHT22;39202;51.468;7.146;2023-01-26T04:57:28;21.70;40.50
53314;DHT22;39202;51.468;7.146;2023-01-26T05:02:31;21.70;40.60
53314;DHT22;39202;51.468;7.146;2023-01-26T05:07:33;21.70;40.50
53314;DHT22;39202;51.468;7.146;2023-01-26T05:12:35;21.70;40.60
53314;DHT22;39202;51.468;7.146;2023-01-26T05:17:39;21.60;40.60
53314;DHT22;39202;51.468;7.146;2023-01-26T05:22:40;21.60;40.50
53314;DHT22;39202;51.468;7.146;2023-01-26T05:27:42;21.70;40.60
53314;DHT22;39202;51.468;7.146;2023-01-26T05:32:46;21.60;43.30
53314;DHT22;39202;51.468;7.146;2023-01-26T05:37:47;21.60;40.60
53314;DHT22;39202;51.468;7.146;2023-01-26T05:42:49;21.60;40.10
53314;DHT22;39202;51.468;7.146;2023-01-26T05:47:52;21.60;40.60
53314;DHT22;39202;51.468;7.146;2023-01-26T05:52:54;21.60;40.60
53314;DHT22;39202;51.468;7.146;2023-01-26T05:57:56;21.60;40.60
53314;DHT22;39202;51.468;7.146;2023-01-26T06:02:59;21.70;40.70
53314;DHT22;39202;51.468;7.146;2023-01-26T06:08:01;21.70;40.70
53314;DHT22;39202;51.468;7.146;2023-01-26T06:13:02;21.70;40.70
53314;DHT22;39202;51.468;7.146;2023-01-26T06:18:06;21.70;40.60
53314;DHT22;39202;51.468;7.146;2023-01-26T06:23:07;21.70;40.70
53314;DHT22;39202;51.468;7.146;2023-01-26T06:28:11;21.70;40.60
53314;DHT22;39202;51.468;7.146;2023-01-26T06:33:14;21.70;40.60
53314;DHT22;39202;51.468;7.146;2023-01-26T06:38:16;21.70;40.60
53314;DHT22;39202;51.468;7.146;2023-01-26T06:43:17;21.70;40.50
53314;DHT22;39202;51.468;7.146;2023-01-26T06:54:13;21.80;40.50
53314;DHT22;39202;51.468;7.146;2023-01-26T06:59:15;22.30;40.50
53314;DHT22;39202;51.468;7.146;2023-01-26T07:04:17;23.00;40.30
53314;DHT22;39202;51.468;7.146;2023-01-26T07:09:24;22.10;38.60
53314;DHT22;39202;51.468;7.146;2023-01-26T07:14:26;23.20;40.40
53314;DHT22;39202;51.468;7.146;2023-01-26T07:19:28;21.70;40.10
53314;DHT22;39202;51.468;7.146;2023-01-26T07:24:32;21.80;40.50
53314;DHT22;39202;51.468;7.146;2023-01-26T07:29:33;22.40;40.70
53314;DHT22;39202;51.468;7.146;2023-01-26T07:35:00;23.20;40.10
53314;DHT22;39202;51.468;7.146;2023-01-26T07:52:04;21.60;40.90
53314;DHT22;39202;51.468;7.146;2023-01-26T08:03:19;22.30;41.20
53314;DHT22;39202;51.468;7.146;2023-01-26T08:08:37;22.50;40.20
53314;DHT22;39202;51.468;7.146;2023-01-26T08:21:27;21.60;40.80
53314;DHT22;39202;51.468;7.146;2023-01-26T08:26:04;22.00;41.00
53314;DHT22;39202;51.468;7.146;2023-01-26T08:31:25;23.30;41.30
53314;DHT22;39202;51.468;7.146;2023-01-26T08:36:46;23.10;41.00
53314;DHT22;39202;51.468;7.146;2023-01-26T08:47:12;23.20;41.10
53314;DHT22;39202;51.468;7.146;2023-01-26T08:52:13;23.30;41.10
53314;DHT22;39202;51.468;7.146;2023-01-26T08:57:16;23.40;41.10
53314;DHT22;39202;51.468;7.146;2023-01-26T09:02:19;23.50;41.10
53314;DHT22;39202;51.468;7.146;2023-01-26T09:07:20;23.60;41.00
53314;DHT22;39202;51.468;7.146;2023-01-26T09:12:22;23.70;41.00
53314;DHT22;39202;51.468;7.146;2023-01-26T09:17:25;23.70;41.00
53314;DHT22;39202;51.468;7.146;2023-01-26T09:22:27;23.80;41.00
53314;DHT22;39202;51.468;7.146;2023-01-26T09:27:29;23.80;41.00
53314;DHT22;39202;51.468;7.146;2023-01-26T09:32:32;23.80;40.80
53314;DHT22;39202;51.468;7.146;2023-01-26T09:37:34;23.80;40.80
53314;DHT22;39202;51.468;7.146;2023-01-26T09:42:45;23.90;40.80
53314;DHT22;39202;51.468;7.146;2023-01-26T09:48:07;23.90;40.60
53314;DHT22;39202;51.468;7.146;2023-01-26T09:53:15;23.90;40.40
53314;DHT22;39202;51.468;7.146;2023-01-26T09:58:23;23.90;40.50
53314;DHT22;39202;51.468;7.146;2023-01-26T10:03:30;23.90;40.60
53314;DHT22;39202;51.468;7.146;2023-01-26T10:08:33;23.90;40.60
53314;DHT22;39202;51.468;7.146;2023-01-26T10:13:35;23.90;40.60
53314;DHT22;39202;51.468;7.146;2023-01-26T10:18:46;23.90;40.60
53314;DHT22;39202;51.468;7.146;2023-01-26T10:23:51;24.10;40.50
53314;DHT22;39202;51.468;7.146;2023-01-26T10:28:53;24.10;40.60
53314;DHT22;39202;51.468;7.146;2023-01-26T10:33:57;24.10;40.60
53314;DHT22;39202;51.468;7.146;2023-01-26T10:39:05;24.10;40.70
53314;DHT22;39202;51.468;7.146;2023-01-26T10:44:22;24.10;40.70
53314;DHT22;39202;51.468;7.146;2023-01-26T10:49:26;24.20;40.70
53314;DHT22;39202;51.468;7.146;2023-01-26T10:54:28;24.20;40.60
53314;DHT22;39202;51.468;7.146;2023-01-26T10:59:32;24.20;40.60
53314;DHT22;39202;51.468;7.146;2023-01-26T11:04:36;24.20;40.60
53314;DHT22;39202;51.468;7.146;2023-01-26T11:09:38;24.20;40.60
53314;DHT22;39202;51.468;7.146;2023-01-26T11:14:39;24.20;40.60
53314;DHT22;39202;51.468;7.146;2023-01-26T11:20:06;24.20;40.60
53314;DHT22;39202;51.468;7.146;2023-01-26T11:25:17;24.20;40.60
53314;DHT22;39202;51.468;7.146;2023-01-26T11:30:44;24.20;40.60
53314;DHT22;39202;51.468;7.146;2023-01-26T11:35:55;24.20;40.70
53314;DHT22;39202;51.468;7.146;2023-01-26T11:41:10;24.20;40.80
53314;DHT22;39202;51.468;7.146;2023-01-26T11:46:25;24.20;40.80
53314;DHT22;39202;51.468;7.146;2023-01-26T11:51:43;24.20;40.90
53314;DHT22;39202;51.468;7.146;2023-01-26T11:56:54;24.20;40.90
53314;DHT22;39202;51.468;7.146;2023-01-26T12:02:00;24.20;40.90
53314;DHT22;39202;51.468;7.146;2023-01-26T12:07:09;24.30;40.90
53314;DHT22;39202;51.468;7.146;2023-01-26T12:12:13;24.30;40.90
53314;DHT22;39202;51.468;7.146;2023-01-26T12:17:35;24.30;40.80
53314;DHT22;39202;51.468;7.146;2023-01-26T12:22:44;24.30;40.70
53314;DHT22;39202;51.468;7.146;2023-01-26T12:27:52;24.30;40.60
53314;DHT22;39202;51.468;7.146;2023-01-26T12:32:56;24.30;40.60
53314;DHT22;39202;51.468;7.146;2023-01-26T12:38:03;24.20;40.50
53314;DHT22;39202;51.468;7.146;2023-01-26T12:43:19;24.30;40.60
53314;DHT22;39202;51.468;7.146;2023-01-26T12:48:32;24.20;40.50
53314;DHT22;39202;51.468;7.146;2023-01-26T12:53:45;24.20;40.60
53314;DHT22;39202;51.468;7.146;2023-01-26T12:58:50;24.20;40.60
53314;DHT22;39202;51.468;7.146;2023-01-26T13:03:54;24.20;40.60
53314;DHT22;39202;51.468;7.146;2023-01-26T13:09:17;24.20;40.60
53314;DHT22;39202;51.468;7.146;2023-01-26T13:14:34;24.20;40.60
53314;DHT22;39202;51.468;7.146;2023-01-26T13:19:51;24.20;40.60
53314;DHT22;39202;51.468;7.146;2023-01-26T13:24:57;24.20;40.60
53314;DHT22;39202;51.468;7.146;2023-01-26T13:29:59;24.20;39.70
53314;DHT22;39202;51.468;7.146;2023-01-26T13:35:01;24.10;39.00
53314;DHT22;39202;51.468;7.146;2023-01-26T13:40:13;23.90;38.20
53314;DHT22;39202;51.468;7.146;2023-01-26T13:45:24;23.80;38.50
53314;DHT22;39202;51.468;7.146;2023-01-26T13:50:29;23.70;38.90
53314;DHT22;39202;51.468;7.146;2023-01-26T13:55:33;23.70;39.20
53314;DHT22;39202;51.468;7.146;2023-01-26T14:00:35;23.70;39.40
53314;DHT22;39202;51.468;7.146;2023-01-26T14:05:36;23.70;39.60
53314;DHT22;39202;51.468;7.146;2023-01-26T14:10:41;23.70;39.70
53314;DHT22;39202;51.468;7.146;2023-01-26T14:15:43;23.80;39.90
53314;DHT22;39202;51.468;7.146;2023-01-26T14:20:45;23.80;40.00
53314;DHT22;39202;51.468;7.146;2023-01-26T14:25:56;23.80;40.00
53314;DHT22;39202;51.468;7.146;2023-01-26T14:31:02;23.90;40.10
53314;DHT22;39202;51.468;7.146;2023-01-26T14:36:04;24.00;40.20
53314;DHT22;39202;51.468;7.146;2023-01-26T14:41:11;24.10;40.20
53314;DHT22;39202;51.468;7.146;2023-01-26T14:46:17;24.10;40.20
53314;DHT22;39202;51.468;7.146;2023-01-26T14:51:21;24.10;40.20
53314;DHT22;39202;51.468;7.146;2023-01-26T14:56:31;24.20;40.20
53314;DHT22;39202;51.468;7.146;2023-01-26T15:01:34;24.20;40.30
53314;DHT22;39202;51.468;7.146;2023-01-26T15:06:35;24.20;40.20
53314;DHT22;39202;51.468;7.146;2023-01-26T15:11:39;24.20;39.90
53314;DHT22;39202;51.468;7.146;2023-01-26T15:16:59;24.20;39.80
53314;DHT22;39202;51.468;7.146;2023-01-26T15:22:01;24.20;39.90
53314;DHT22;39202;51.468;7.146;2023-01-26T15:27:09;24.20;40.00
53314;DHT22;39202;51.468;7.146;2023-01-26T15:32:27;24.20;40.10
53314;DHT22;39202;51.468;7.146;2023-01-26T15:37:30;24.20;40.20
53314;DHT22;39202;51.468;7.146;2023-01-26T15:42:33;24.20;40.10
53314;DHT22;39202;51.468;7.146;2023-01-26T15:47:35;24.20;40.20
53314;DHT22;39202;51.468;7.146;2023-01-26T15:52:37;24.20;40.30
53314;DHT22;39202;51.468;7.146;2023-01-26T15:57:41;24.20;40.30
53314;DHT22;39202;51.468;7.146;2023-01-26T16:02:43;24.20;40.30
53314;DHT22;39202;51.468;7.146;2023-01-26T16:07:44;24.20;40.30
53314;DHT22;39202;51.468;7.146;2023-01-26T16:12:48;24.20;40.30
53314;DHT22;39202;51.468;7.146;2023-01-26T16:17:51;24.20;40.30
53314;DHT22;39202;51.468;7.146;2023-01-26T16:22:52;24.20;40.40
53314;DHT22;39202;51.468;7.146;2023-01-26T16:27:57;24.30;40.40
53314;DHT22;39202;51.468;7.146;2023-01-26T16:33:00;24.30;40.40
53314;DHT22;39202;51.468;7.146;2023-01-26T16:38:01;24.20;40.40
53314;DHT22;39202;51.468;7.146;2023-01-26T16:43:14;24.30;40.40
53314;DHT22;39202;51.468;7.146;2023-01-26T16:48:18;24.30;40.50
53314;DHT22;39202;51.468;7.146;2023-01-26T16:53:24;24.30;40.10
53314;DHT22;39202;51.468;7.146;2023-01-26T16:58:28;24.20;39.80
53314;DHT22;39202;51.468;7.146;2023-01-26T17:03:32;24.20;39.70
53314;DHT22;39202;51.468;7.146;2023-01-26T17:08:35;24.10;39.60
53314;DHT22;39202;51.468;7.146;2023-01-26T17:13:38;24.10;39.60
53314;DHT22;39202;51.468;7.146;2023-01-26T17:18:40;24.10;39.60
53314;DHT22;39202;51.468;7.146;2023-01-26T17:23:42;24.00;39.60
53314;DHT22;39202;51.468;7.146;2023-01-26T17:28:46;24.00;39.60
53314;DHT22;39202;51.468;7.146;2023-01-26T17:33:49;23.90;39.60
53314;DHT22;39202;51.468;7.146;2023-01-26T17:38:51;23.90;39.70
53314;DHT22;39202;51.468;7.146;2023-01-26T17:43:54;23.90;39.70
53314;DHT22;39202;51.468;7.146;2023-01-26T17:48:56;23.80;39.70
53314;DHT22;39202;51.468;7.146;2023-01-26T17:53:58;23.70;39.70
53314;DHT22;39202;51.468;7.146;2023-01-26T17:59:01;23.70;39.70
53314;DHT22;39202;51.468;7.146;2023-01-26T18:04:03;23.70;39.80
53314;DHT22;39202;51.468;7.146;2023-01-26T18:09:05;23.60;39.80
53314;DHT22;39202;51.468;7.146;2023-01-26T18:14:08;23.60;39.80
53314;DHT22;39202;51.468;7.146;2023-01-26T18:19:10;23.50;39.70
53314;DHT22;39202;51.468;7.146;2023-01-26T18:24:12;23.50;39.80
53314;DHT22;39202;51.468;7.146;2023-01-26T18:29:15;23.50;39.80
53314;DHT22;39202;51.468;7.146;2023-01-26T18:34:17;23.40;39.80
53314;DHT22;39202;51.468;7.146;2023-01-26T18:39:18;23.40;39.80
53314;DHT22;39202;51.468;7.146;2023-01-26T18:44:21;23.40;39.90
53314;DHT22;39202;51.468;7.146;2023-01-26T18:49:24;23.30;39.90
53314;DHT22;39202;51.468;7.146;2023-01-26T18:54:26;23.30;39.90
53314;DHT22;39202;51.468;7.146;2023-01-26T18:59:30;23.30;39.90
53314;DHT22;39202;51.468;7.146;2023-01-26T19:04:32;23.20;39.80
53314;DHT22;39202;51.468;7.146;2023-01-26T19:09:33;23.20;39.80
53314;DHT22;39202;51.468;7.146;2023-01-26T19:14:37;23.20;39.90
53314;DHT22;39202;51.468;7.146;2023-01-26T19:19:38;23.20;39.90
53314;DHT22;39202;51.468;7.146;2023-01-26T19:24:41;23.10;39.90
53314;DHT22;39202;51.468;7.146;2023-01-26T19:29:44;23.10;40.00
53314;DHT22;39202;51.468;7.146;2023-01-26T19:34:46;23.00;39.90
53314;DHT22;39202;51.468;7.146;2023-01-26T19:39:48;23.00;39.90
53314;DHT22;39202;51.468;7.146;2023-01-26T19:44:51;23.00;40.00
53314;DHT22;39202;51.468;7.146;2023-01-26T19:49:53;23.00;40.00
53314;DHT22;39202;51.468;7.146;2023-01-26T19:54:54;22.90;40.00
53314;DHT22;39202;51.468;7.146;2023-01-26T19:59:57;22.90;40.00
53314;DHT22;39202;51.468;7.146;2023-01-26T20:04:59;22.90;40.00
53314;DHT22;39202;51.468;7.146;2023-01-26T20:10:01;22.90;40.00
53314;DHT22;39202;51.468;7.146;2023-01-26T20:15:05;22.80;40.00
53314;DHT22;39202;51.468;7.146;2023-01-26T20:20:09;22.80;40.00
53314;DHT22;39202;51.468;7.146;2023-01-26T20:25:12;22.80;40.00
53314;DHT22;39202;51.468;7.146;2023-01-26T20:30:16;22.80;40.10
53314;DHT22;39202;51.468;7.146;2023-01-26T20:35:18;22.70;40.00
53314;DHT22;39202;51.468;7.146;2023-01-26T20:40:20;22.70;40.10
53314;DHT22;39202;51.468;7.146;2023-01-26T20:45:23;22.70;40.70
53314;DHT22;39202;51.468;7.146;2023-01-26T20:50:24;22.70;40.10
53314;DHT22;39202;51.468;7.146;2023-01-26T20:55:26;22.70;40.10
53314;DHT22;39202;51.468;7.146;2023-01-26T21:00:29;22.60;40.10
53314;DHT22;39202;51.468;7.146;2023-01-26T21:05:32;22.60;40.10
53314;DHT22;39202;51.468;7.146;2023-01-26T21:10:34;22.60;40.10
53314;DHT22;39202;51.468;7.146;2023-01-26T21:15:37;22.60;40.20
53314;DHT22;39202;51.468;7.146;2023-01-26T21:20:38;22.60;40.20
53314;DHT22;39202;51.468;7.146;2023-01-26T21:25:40;22.50;40.20
53314;DHT22;39202;51.468;7.146;2023-01-26T21:30:43;22.50;40.20
53314;DHT22;39202;51.468;7.146;2023-01-26T21:35:54;22.50;40.20
53314;DHT22;39202;51.468;7.146;2023-01-26T21:40:59;22.50;40.20
53314;DHT22;39202;51.468;7.146;2023-01-26T21:46:03;22.50;40.20
53314;DHT22;39202;51.468;7.146;2023-01-26T21:51:05;22.50;40.20
53314;DHT22;39202;51.468;7.146;2023-01-26T21:56:24;22.50;40.10
53314;DHT22;39202;51.468;7.146;2023-01-26T22:01:27;22.40;40.10
53314;DHT22;39202;51.468;7.146;2023-01-26T22:06:29;22.40;40.20
53314;DHT22;39202;51.468;7.146;2023-01-26T22:11:31;22.40;40.20
53314;DHT22;39202;51.468;7.146;2023-01-26T22:16:34;22.30;40.10
53314;DHT22;39202;51.468;7.146;2023-01-26T22:21:36;22.30;40.20
53314;DHT22;39202;51.468;7.146;2023-01-26T22:26:38;22.30;40.20
53314;DHT22;39202;51.468;7.146;2023-01-26T22:31:41;22.30;40.20
53314;DHT22;39202;51.468;7.146;2023-01-26T22:36:43;22.30;40.20
53314;DHT22;39202;51.468;7.146;2023-01-26T22:41:44;22.30;40.20
53314;DHT22;39202;51.468;7.146;2023-01-26T22:46:47;22.30;40.30
53314;DHT22;39202;51.468;7.146;2023-01-26T22:51:49;22.20;40.20
53314;DHT22;39202;51.468;7.146;2023-01-26T22:56:51;22.20;40.20
53314;DHT22;39202;51.468;7.146;2023-01-26T23:01:54;22.20;40.20
53314;DHT22;39202;51.468;7.146;2023-01-26T23:06:56;22.20;40.30
53314;DHT22;39202;51.468;7.146;2023-01-26T23:11:58;22.20;40.20
53314;DHT22;39202;51.468;7.146;2023-01-26T23:17:03;22.20;40.20
53314;DHT22;39202;51.468;7.146;2023-01-26T23:22:07;22.20;40.20
53314;DHT22;39202;51.468;7.146;2023-01-26T23:27:09;22.10;40.20
53314;DHT22;39202;51.468;7.146;2023-01-26T23:32:12;22.10;40.20
53314;DHT22;39202;51.468;7.146;2023-01-26T23:37:13;22.10;40.20
53314;DHT22;39202;51.468;7.146;2023-01-26T23:42:15;22.10;40.30
53314;DHT22;39202;51.468;7.146;2023-01-26T23:47:18;22.10;40.30
53314;DHT22;39202;51.468;7.146;2023-01-26T23:52:20;22.10;40.30
53314;DHT22;39202;51.468;7.146;2023-01-26T23:57:22;22.00;40.20
